sensor_id;sensor_type;location;lat;lon;timestamp;P1;durP1;ratioP1;P2;durP2;ratioP2
23394;SDS011;11870;53.084;18.206;2022-12-18T00:01:36;46.45;;;17.85;;
23394;SDS011;11870;53.084;18.206;2022-12-18T00:04:06;52.38;;;17.13;;
23394;SDS011;11870;53.084;18.206;2022-12-18T00:06:33;54.95;;;16.98;;
23394;SDS011;11870;53.084;18.206;2022-12-18T00:09:01;54.10;;;16.33;;
23394;SDS011;11870;53.084;18.206;2022-12-18T00:11:29;46.25;;;16.50;;
23394;SDS011;11870;53.084;18.206;2022-12-18T00:13:56;44.83;;;16.35;;
23394;SDS011;11870;53.084;18.206;2022-12-18T00:16:24;44.90;;;15.73;;
23394;SDS011;11870;53.084;18.206;2022-12-18T00:18:52;55.70;;;17.25;;
23394;SDS011;11870;53.084;18.206;2022-12-18T00:21:20;57.15;;;16.95;;
23394;SDS011;11870;53.084;18.206;2022-12-18T00:23:46;54.08;;;17.60;;
23394;SDS011;11870;53.084;18.206;2022-12-18T00:26:15;59.95;;;19.75;;
23394;SDS011;11870;53.084;18.206;2022-12-18T00:28:43;52.65;;;18.20;;
23394;SDS011;11870;53.084;18.206;2022-12-18T00:31:11;48.83;;;16.48;;
23394;SDS011;11870;53.084;18.206;2022-12-18T00:33:39;65.15;;;19.90;;
23394;SDS011;11870;53.084;18.206;2022-12-18T00:36:10;56.72;;;17.90;;
23394;SDS011;11870;53.084;18.206;2022-12-18T00:38:37;57.28;;;19.15;;
23394;SDS011;11870;53.084;18.206;2022-12-18T00:41:04;54.53;;;18.52;;
23394;SDS011;11870;53.084;18.206;2022-12-18T00:43:35;55.83;;;19.00;;
23394;SDS011;11870;53.084;18.206;2022-12-18T00:46:02;50.72;;;16.88;;
23394;SDS011;11870;53.084;18.206;2022-12-18T00:48:28;53.20;;;18.90;;
23394;SDS011;11870;53.084;18.206;2022-12-18T00:50:54;54.45;;;17.52;;
23394;SDS011;11870;53.084;18.206;2022-12-18T00:53:22;54.53;;;18.13;;
23394;SDS011;11870;53.084;18.206;2022-12-18T00:55:48;51.10;;;17.83;;
23394;SDS011;11870;53.084;18.206;2022-12-18T00:58:15;55.72;;;17.30;;
23394;SDS011;11870;53.084;18.206;2022-12-18T01:00:42;60.65;;;19.02;;
23394;SDS011;11870;53.084;18.206;2022-12-18T01:03:09;58.88;;;18.25;;
23394;SDS011;11870;53.084;18.206;2022-12-18T01:05:41;60.00;;;17.48;;
23394;SDS011;11870;53.084;18.206;2022-12-18T01:08:07;51.75;;;17.27;;
23394;SDS011;11870;53.084;18.206;2022-12-18T01:10:33;51.25;;;17.50;;
23394;SDS011;11870;53.084;18.206;2022-12-18T01:12:59;52.78;;;17.10;;
23394;SDS011;11870;53.084;18.206;2022-12-18T01:15:25;53.22;;;17.67;;
23394;SDS011;11870;53.084;18.206;2022-12-18T01:17:52;50.17;;;16.55;;
23394;SDS011;11870;53.084;18.206;2022-12-18T01:20:18;54.83;;;17.88;;
23394;SDS011;11870;53.084;18.206;2022-12-18T01:22:44;53.38;;;17.73;;
23394;SDS011;11870;53.084;18.206;2022-12-18T01:25:10;54.63;;;18.02;;
23394;SDS011;11870;53.084;18.206;2022-12-18T01:27:36;61.05;;;17.52;;
23394;SDS011;11870;53.084;18.206;2022-12-18T01:30:02;45.72;;;16.35;;
23394;SDS011;11870;53.084;18.206;2022-12-18T01:32:29;53.92;;;16.85;;
23394;SDS011;11870;53.084;18.206;2022-12-18T01:34:56;54.85;;;17.92;;
23394;SDS011;11870;53.084;18.206;2022-12-18T01:37:22;51.45;;;17.48;;
23394;SDS011;11870;53.084;18.206;2022-12-18T01:39:48;48.72;;;16.23;;
23394;SDS011;11870;53.084;18.206;2022-12-18T01:42:15;52.22;;;17.40;;
23394;SDS011;11870;53.084;18.206;2022-12-18T01:50:11;48.60;;;16.30;;
23394;SDS011;11870;53.084;18.206;2022-12-18T01:52:53;47.55;;;15.30;;
23394;SDS011;11870;53.084;18.206;2022-12-18T01:55:29;43.50;;;15.13;;
23394;SDS011;11870;53.084;18.206;2022-12-18T01:57:58;45.40;;;16.10;;
23394;SDS011;11870;53.084;18.206;2022-12-18T02:00:25;46.17;;;15.82;;
23394;SDS011;11870;53.084;18.206;2022-12-18T02:02:52;49.55;;;17.17;;
23394;SDS011;11870;53.084;18.206;2022-12-18T02:05:25;42.20;;;14.52;;
23394;SDS011;11870;53.084;18.206;2022-12-18T02:15:59;42.80;;;14.85;;
23394;SDS011;11870;53.084;18.206;2022-12-18T02:18:28;46.08;;;14.60;;
23394;SDS011;11870;53.084;18.206;2022-12-18T02:26:53;41.08;;;13.70;;
23394;SDS011;11870;53.084;18.206;2022-12-18T02:29:24;41.53;;;15.25;;
23394;SDS011;11870;53.084;18.206;2022-12-18T02:31:56;36.00;;;13.18;;
23394;SDS011;11870;53.084;18.206;2022-12-18T02:34:26;40.83;;;14.00;;
23394;SDS011;11870;53.084;18.206;2022-12-18T02:36:57;38.55;;;14.35;;
23394;SDS011;11870;53.084;18.206;2022-12-18T02:39:26;38.72;;;14.70;;
23394;SDS011;11870;53.084;18.206;2022-12-18T02:41:54;44.08;;;14.80;;
23394;SDS011;11870;53.084;18.206;2022-12-18T02:44:21;43.63;;;14.27;;
23394;SDS011;11870;53.084;18.206;2022-12-18T02:46:51;33.40;;;13.48;;
23394;SDS011;11870;53.084;18.206;2022-12-18T02:57:46;42.75;;;14.20;;
23394;SDS011;11870;53.084;18.206;2022-12-18T03:00:18;35.60;;;12.65;;
23394;SDS011;11870;53.084;18.206;2022-12-18T03:05:52;37.00;;;12.40;;
23394;SDS011;11870;53.084;18.206;2022-12-18T03:08:35;35.03;;;12.70;;
23394;SDS011;11870;53.084;18.206;2022-12-18T03:11:05;39.45;;;12.57;;
23394;SDS011;11870;53.084;18.206;2022-12-18T03:13:44;38.28;;;13.60;;
23394;SDS011;11870;53.084;18.206;2022-12-18T03:16:18;33.55;;;13.15;;
23394;SDS011;11870;53.084;18.206;2022-12-18T03:18:52;35.55;;;11.98;;
23394;SDS011;11870;53.084;18.206;2022-12-18T03:21:23;35.67;;;13.02;;
23394;SDS011;11870;53.084;18.206;2022-12-18T03:24:05;34.30;;;11.25;;
23394;SDS011;11870;53.084;18.206;2022-12-18T03:26:33;37.72;;;12.70;;
23394;SDS011;11870;53.084;18.206;2022-12-18T03:29:05;33.25;;;11.90;;
23394;SDS011;11870;53.084;18.206;2022-12-18T03:31:34;36.40;;;12.07;;
23394;SDS011;11870;53.084;18.206;2022-12-18T03:34:04;33.47;;;12.60;;
23394;SDS011;11870;53.084;18.206;2022-12-18T03:36:34;30.98;;;11.63;;
23394;SDS011;11870;53.084;18.206;2022-12-18T03:39:00;30.42;;;11.35;;
23394;SDS011;11870;53.084;18.206;2022-12-18T03:44:15;33.78;;;10.75;;
23394;SDS011;11870;53.084;18.206;2022-12-18T03:52:48;38.60;;;12.63;;
23394;SDS011;11870;53.084;18.206;2022-12-18T03:55:21;34.00;;;11.25;;
23394;SDS011;11870;53.084;18.206;2022-12-18T03:57:49;35.05;;;11.18;;
23394;SDS011;11870;53.084;18.206;2022-12-18T04:00:18;30.70;;;11.20;;
23394;SDS011;11870;53.084;18.206;2022-12-18T04:02:45;31.85;;;11.45;;
23394;SDS011;11870;53.084;18.206;2022-12-18T04:05:18;38.15;;;12.35;;
23394;SDS011;11870;53.084;18.206;2022-12-18T04:07:46;34.97;;;12.18;;
23394;SDS011;11870;53.084;18.206;2022-12-18T04:10:14;30.58;;;11.35;;
23394;SDS011;11870;53.084;18.206;2022-12-18T04:12:41;28.65;;;11.20;;
23394;SDS011;11870;53.084;18.206;2022-12-18T04:15:08;30.30;;;12.05;;
23394;SDS011;11870;53.084;18.206;2022-12-18T04:17:35;32.75;;;11.73;;
23394;SDS011;11870;53.084;18.206;2022-12-18T04:20:01;34.65;;;11.70;;
23394;SDS011;11870;53.084;18.206;2022-12-18T04:22:27;37.60;;;12.63;;
23394;SDS011;11870;53.084;18.206;2022-12-18T04:24:53;30.92;;;11.88;;
23394;SDS011;11870;53.084;18.206;2022-12-18T04:27:20;34.55;;;12.80;;
23394;SDS011;11870;53.084;18.206;2022-12-18T04:29:46;29.80;;;11.48;;
23394;SDS011;11870;53.084;18.206;2022-12-18T04:32:12;38.25;;;12.55;;
23394;SDS011;11870;53.084;18.206;2022-12-18T04:34:38;36.78;;;13.70;;
23394;SDS011;11870;53.084;18.206;2022-12-18T04:37:03;39.22;;;12.70;;
23394;SDS011;11870;53.084;18.206;2022-12-18T04:39:30;43.20;;;14.60;;
23394;SDS011;11870;53.084;18.206;2022-12-18T04:41:55;37.58;;;12.70;;
23394;SDS011;11870;53.084;18.206;2022-12-18T04:44:21;36.72;;;13.90;;
23394;SDS011;11870;53.084;18.206;2022-12-18T04:46:47;43.72;;;14.48;;
23394;SDS011;11870;53.084;18.206;2022-12-18T04:49:13;40.20;;;14.93;;
23394;SDS011;11870;53.084;18.206;2022-12-18T04:51:39;40.80;;;15.48;;
23394;SDS011;11870;53.084;18.206;2022-12-18T04:54:05;44.35;;;15.25;;
23394;SDS011;11870;53.084;18.206;2022-12-18T04:56:31;39.97;;;13.57;;
23394;SDS011;11870;53.084;18.206;2022-12-18T04:58:57;43.85;;;14.27;;
23394;SDS011;11870;53.084;18.206;2022-12-18T05:01:23;37.92;;;13.60;;
23394;SDS011;11870;53.084;18.206;2022-12-18T05:03:50;39.63;;;13.27;;
23394;SDS011;11870;53.084;18.206;2022-12-18T05:06:16;43.22;;;15.05;;
23394;SDS011;11870;53.084;18.206;2022-12-18T05:08:43;45.28;;;14.45;;
23394;SDS011;11870;53.084;18.206;2022-12-18T05:11:09;43.67;;;14.57;;
23394;SDS011;11870;53.084;18.206;2022-12-18T05:13:37;39.30;;;13.93;;
23394;SDS011;11870;53.084;18.206;2022-12-18T05:16:04;41.22;;;14.05;;
23394;SDS011;11870;53.084;18.206;2022-12-18T05:18:30;40.67;;;14.18;;
23394;SDS011;11870;53.084;18.206;2022-12-18T05:20:56;44.53;;;13.32;;
23394;SDS011;11870;53.084;18.206;2022-12-18T05:23:23;41.05;;;13.65;;
23394;SDS011;11870;53.084;18.206;2022-12-18T05:28:29;40.58;;;14.02;;
23394;SDS011;11870;53.084;18.206;2022-12-18T05:30:56;35.28;;;12.95;;
23394;SDS011;11870;53.084;18.206;2022-12-18T05:33:24;46.95;;;13.77;;
23394;SDS011;11870;53.084;18.206;2022-12-18T05:36:01;38.65;;;13.85;;
23394;SDS011;11870;53.084;18.206;2022-12-18T05:38:29;38.22;;;14.18;;
23394;SDS011;11870;53.084;18.206;2022-12-18T05:40:56;39.78;;;13.80;;
23394;SDS011;11870;53.084;18.206;2022-12-18T05:43:22;42.78;;;14.48;;
23394;SDS011;11870;53.084;18.206;2022-12-18T05:45:49;42.33;;;13.63;;
23394;SDS011;11870;53.084;18.206;2022-12-18T05:48:16;46.70;;;14.98;;
23394;SDS011;11870;53.084;18.206;2022-12-18T05:50:42;40.72;;;14.40;;
23394;SDS011;11870;53.084;18.206;2022-12-18T05:53:13;37.20;;;13.30;;
23394;SDS011;11870;53.084;18.206;2022-12-18T05:55:41;41.42;;;13.18;;
23394;SDS011;11870;53.084;18.206;2022-12-18T05:58:08;40.75;;;14.02;;
23394;SDS011;11870;53.084;18.206;2022-12-18T06:00:37;31.50;;;11.82;;
23394;SDS011;11870;53.084;18.206;2022-12-18T06:03:05;47.45;;;14.80;;
23394;SDS011;11870;53.084;18.206;2022-12-18T06:05:36;36.20;;;15.10;;
23394;SDS011;11870;53.084;18.206;2022-12-18T06:08:04;42.63;;;12.65;;
23394;SDS011;11870;53.084;18.206;2022-12-18T06:10:30;35.92;;;12.55;;
23394;SDS011;11870;53.084;18.206;2022-12-18T06:12:56;39.30;;;12.52;;
23394;SDS011;11870;53.084;18.206;2022-12-18T06:15:22;31.33;;;11.48;;
23394;SDS011;11870;53.084;18.206;2022-12-18T06:17:48;37.88;;;11.80;;
23394;SDS011;11870;53.084;18.206;2022-12-18T06:20:14;36.08;;;12.23;;
23394;SDS011;11870;53.084;18.206;2022-12-18T06:22:40;34.58;;;11.75;;
23394;SDS011;11870;53.084;18.206;2022-12-18T06:25:06;41.33;;;13.15;;
23394;SDS011;11870;53.084;18.206;2022-12-18T06:27:32;40.75;;;12.45;;
23394;SDS011;11870;53.084;18.206;2022-12-18T06:29:59;39.05;;;12.00;;
23394;SDS011;11870;53.084;18.206;2022-12-18T06:32:26;34.05;;;11.18;;
23394;SDS011;11870;53.084;18.206;2022-12-18T06:34:52;31.50;;;10.70;;
23394;SDS011;11870;53.084;18.206;2022-12-18T06:37:19;38.45;;;12.80;;
23394;SDS011;11870;53.084;18.206;2022-12-18T06:39:45;34.60;;;10.98;;
23394;SDS011;11870;53.084;18.206;2022-12-18T06:42:11;39.85;;;13.00;;
23394;SDS011;11870;53.084;18.206;2022-12-18T06:44:37;44.03;;;14.52;;
23394;SDS011;11870;53.084;18.206;2022-12-18T06:47:17;39.55;;;12.85;;
23394;SDS011;11870;53.084;18.206;2022-12-18T06:49:44;43.08;;;12.32;;
23394;SDS011;11870;53.084;18.206;2022-12-18T06:52:09;38.28;;;13.20;;
23394;SDS011;11870;53.084;18.206;2022-12-18T06:54:35;46.15;;;12.93;;
23394;SDS011;11870;53.084;18.206;2022-12-18T06:57:01;39.78;;;13.10;;
23394;SDS011;11870;53.084;18.206;2022-12-18T06:59:28;43.92;;;12.65;;
23394;SDS011;11870;53.084;18.206;2022-12-18T07:01:53;42.85;;;13.50;;
23394;SDS011;11870;53.084;18.206;2022-12-18T07:04:19;40.40;;;12.43;;
23394;SDS011;11870;53.084;18.206;2022-12-18T07:06:45;40.75;;;12.57;;
23394;SDS011;11870;53.084;18.206;2022-12-18T07:09:12;46.88;;;13.40;;
23394;SDS011;11870;53.084;18.206;2022-12-18T07:11:37;44.80;;;12.55;;
23394;SDS011;11870;53.084;18.206;2022-12-18T07:14:03;37.67;;;12.63;;
23394;SDS011;11870;53.084;18.206;2022-12-18T07:16:29;45.70;;;12.57;;
23394;SDS011;11870;53.084;18.206;2022-12-18T07:18:55;45.92;;;13.68;;
23394;SDS011;11870;53.084;18.206;2022-12-18T07:21:22;42.65;;;13.02;;
23394;SDS011;11870;53.084;18.206;2022-12-18T07:23:49;40.63;;;14.73;;
23394;SDS011;11870;53.084;18.206;2022-12-18T07:26:16;45.50;;;13.05;;
23394;SDS011;11870;53.084;18.206;2022-12-18T07:28:43;43.83;;;13.55;;
23394;SDS011;11870;53.084;18.206;2022-12-18T07:31:11;39.17;;;13.23;;
23394;SDS011;11870;53.084;18.206;2022-12-18T07:33:38;50.95;;;14.35;;
23394;SDS011;11870;53.084;18.206;2022-12-18T07:36:04;47.53;;;14.38;;
23394;SDS011;11870;53.084;18.206;2022-12-18T07:38:33;44.35;;;13.10;;
23394;SDS011;11870;53.084;18.206;2022-12-18T07:41:00;46.83;;;13.82;;
23394;SDS011;11870;53.084;18.206;2022-12-18T07:43:30;46.10;;;12.82;;
23394;SDS011;11870;53.084;18.206;2022-12-18T07:45:56;42.00;;;12.93;;
23394;SDS011;11870;53.084;18.206;2022-12-18T07:48:22;40.05;;;12.57;;
23394;SDS011;11870;53.084;18.206;2022-12-18T07:50:48;38.85;;;12.63;;
23394;SDS011;11870;53.084;18.206;2022-12-18T07:53:14;51.10;;;14.80;;
23394;SDS011;11870;53.084;18.206;2022-12-18T07:55:40;46.53;;;14.57;;
23394;SDS011;11870;53.084;18.206;2022-12-18T07:58:07;41.60;;;13.88;;
23394;SDS011;11870;53.084;18.206;2022-12-18T08:00:33;41.38;;;12.57;;
23394;SDS011;11870;53.084;18.206;2022-12-18T08:03:00;35.88;;;12.15;;
23394;SDS011;11870;53.084;18.206;2022-12-18T08:05:26;32.67;;;11.48;;
23394;SDS011;11870;53.084;18.206;2022-12-18T08:07:53;37.25;;;12.68;;
23394;SDS011;11870;53.084;18.206;2022-12-18T08:10:20;39.38;;;12.10;;
23394;SDS011;11870;53.084;18.206;2022-12-18T08:12:48;37.85;;;12.43;;
23394;SDS011;11870;53.084;18.206;2022-12-18T08:15:15;34.58;;;11.88;;
23394;SDS011;11870;53.084;18.206;2022-12-18T08:17:41;39.28;;;11.35;;
23394;SDS011;11870;53.084;18.206;2022-12-18T08:20:07;39.95;;;12.60;;
23394;SDS011;11870;53.084;18.206;2022-12-18T08:22:36;39.65;;;11.80;;
23394;SDS011;11870;53.084;18.206;2022-12-18T08:25:03;42.10;;;11.10;;
23394;SDS011;11870;53.084;18.206;2022-12-18T08:27:30;38.00;;;12.35;;
23394;SDS011;11870;53.084;18.206;2022-12-18T08:29:56;39.17;;;13.18;;
23394;SDS011;11870;53.084;18.206;2022-12-18T08:32:22;36.45;;;11.93;;
23394;SDS011;11870;53.084;18.206;2022-12-18T08:34:49;35.67;;;11.20;;
23394;SDS011;11870;53.084;18.206;2022-12-18T08:37:15;37.85;;;13.13;;
23394;SDS011;11870;53.084;18.206;2022-12-18T08:39:41;32.28;;;10.93;;
23394;SDS011;11870;53.084;18.206;2022-12-18T08:42:07;36.58;;;12.80;;
23394;SDS011;11870;53.084;18.206;2022-12-18T08:44:51;39.10;;;13.02;;
23394;SDS011;11870;53.084;18.206;2022-12-18T08:47:17;36.53;;;11.85;;
23394;SDS011;11870;53.084;18.206;2022-12-18T08:49:43;41.03;;;13.35;;
23394;SDS011;11870;53.084;18.206;2022-12-18T08:52:09;42.30;;;13.80;;
23394;SDS011;11870;53.084;18.206;2022-12-18T08:54:34;45.60;;;15.45;;
23394;SDS011;11870;53.084;18.206;2022-12-18T08:57:00;40.28;;;14.65;;
23394;SDS011;11870;53.084;18.206;2022-12-18T08:59:27;40.20;;;13.45;;
23394;SDS011;11870;53.084;18.206;2022-12-18T09:01:54;37.28;;;12.30;;
23394;SDS011;11870;53.084;18.206;2022-12-18T09:04:20;34.15;;;12.20;;
23394;SDS011;11870;53.084;18.206;2022-12-18T09:06:46;42.38;;;13.48;;
23394;SDS011;11870;53.084;18.206;2022-12-18T09:09:12;31.10;;;11.27;;
23394;SDS011;11870;53.084;18.206;2022-12-18T09:11:38;38.90;;;11.73;;
23394;SDS011;11870;53.084;18.206;2022-12-18T09:14:04;44.50;;;12.25;;
23394;SDS011;11870;53.084;18.206;2022-12-18T09:16:30;42.40;;;13.55;;
23394;SDS011;11870;53.084;18.206;2022-12-18T09:18:57;35.70;;;12.20;;
23394;SDS011;11870;53.084;18.206;2022-12-18T09:21:28;36.10;;;12.82;;
23394;SDS011;11870;53.084;18.206;2022-12-18T09:23:55;34.28;;;11.68;;
23394;SDS011;11870;53.084;18.206;2022-12-18T09:26:22;36.10;;;12.15;;
23394;SDS011;11870;53.084;18.206;2022-12-18T09:28:49;31.60;;;11.38;;
23394;SDS011;11870;53.084;18.206;2022-12-18T09:31:15;30.27;;;11.70;;
23394;SDS011;11870;53.084;18.206;2022-12-18T09:33:42;34.60;;;11.60;;
23394;SDS011;11870;53.084;18.206;2022-12-18T09:36:11;31.95;;;11.10;;
23394;SDS011;11870;53.084;18.206;2022-12-18T09:38:39;36.10;;;12.50;;
23394;SDS011;11870;53.084;18.206;2022-12-18T09:41:32;46.92;;;14.93;;
23394;SDS011;11870;53.084;18.206;2022-12-18T09:44:01;40.08;;;12.85;;
23394;SDS011;11870;53.084;18.206;2022-12-18T09:46:37;36.15;;;12.63;;
23394;SDS011;11870;53.084;18.206;2022-12-18T09:49:11;40.50;;;12.15;;
23394;SDS011;11870;53.084;18.206;2022-12-18T09:51:49;40.47;;;13.52;;
23394;SDS011;11870;53.084;18.206;2022-12-18T09:54:22;41.80;;;14.30;;
23394;SDS011;11870;53.084;18.206;2022-12-18T09:57:04;36.38;;;13.63;;
23394;SDS011;11870;53.084;18.206;2022-12-18T09:59:31;36.42;;;13.60;;
23394;SDS011;11870;53.084;18.206;2022-12-18T10:02:12;45.55;;;14.75;;
23394;SDS011;11870;53.084;18.206;2022-12-18T10:04:41;40.72;;;14.65;;
23394;SDS011;11870;53.084;18.206;2022-12-18T10:07:09;41.17;;;14.15;;
23394;SDS011;11870;53.084;18.206;2022-12-18T10:09:50;36.80;;;12.82;;
23394;SDS011;11870;53.084;18.206;2022-12-18T10:12:52;40.00;;;13.93;;
23394;SDS011;11870;53.084;18.206;2022-12-18T10:15:24;41.65;;;14.15;;
23394;SDS011;11870;53.084;18.206;2022-12-18T10:20:52;42.08;;;13.10;;
23394;SDS011;11870;53.084;18.206;2022-12-18T10:23:27;41.30;;;13.68;;
23394;SDS011;11870;53.084;18.206;2022-12-18T10:26:04;46.22;;;15.05;;
23394;SDS011;11870;53.084;18.206;2022-12-18T10:28:32;43.58;;;14.25;;
23394;SDS011;11870;53.084;18.206;2022-12-18T10:31:01;44.20;;;14.88;;
23394;SDS011;11870;53.084;18.206;2022-12-18T10:33:28;44.35;;;13.73;;
23394;SDS011;11870;53.084;18.206;2022-12-18T10:35:56;38.78;;;12.75;;
23394;SDS011;11870;53.084;18.206;2022-12-18T10:40:50;41.53;;;13.98;;
23394;SDS011;11870;53.084;18.206;2022-12-18T10:43:40;41.08;;;13.55;;
23394;SDS011;11870;53.084;18.206;2022-12-18T10:53:57;46.75;;;14.63;;
23394;SDS011;11870;53.084;18.206;2022-12-18T10:56:27;44.95;;;15.93;;
23394;SDS011;11870;53.084;18.206;2022-12-18T10:59:05;40.17;;;13.98;;
23394;SDS011;11870;53.084;18.206;2022-12-18T11:04:15;45.85;;;15.50;;
23394;SDS011;11870;53.084;18.206;2022-12-18T11:06:54;44.65;;;15.25;;
23394;SDS011;11870;53.084;18.206;2022-12-18T11:09:23;49.35;;;16.17;;
23394;SDS011;11870;53.084;18.206;2022-12-18T11:11:57;46.17;;;15.75;;
23394;SDS011;11870;53.084;18.206;2022-12-18T11:16:54;48.53;;;15.50;;
23394;SDS011;11870;53.084;18.206;2022-12-18T11:21:56;40.58;;;14.10;;
23394;SDS011;11870;53.084;18.206;2022-12-18T11:24:26;47.92;;;15.18;;
23394;SDS011;11870;53.084;18.206;2022-12-18T11:26:56;48.90;;;15.45;;
23394;SDS011;11870;53.084;18.206;2022-12-18T11:29:43;44.40;;;15.82;;
23394;SDS011;11870;53.084;18.206;2022-12-18T11:32:22;47.60;;;15.93;;
23394;SDS011;11870;53.084;18.206;2022-12-18T11:35:03;45.95;;;15.43;;
23394;SDS011;11870;53.084;18.206;2022-12-18T11:37:41;55.03;;;16.50;;
23394;SDS011;11870;53.084;18.206;2022-12-18T11:40:17;54.72;;;16.75;;
23394;SDS011;11870;53.084;18.206;2022-12-18T11:42:53;53.75;;;17.50;;
23394;SDS011;11870;53.084;18.206;2022-12-18T11:45:34;58.72;;;18.08;;
23394;SDS011;11870;53.084;18.206;2022-12-18T11:48:26;49.08;;;17.10;;
23394;SDS011;11870;53.084;18.206;2022-12-18T11:51:00;64.75;;;19.20;;
23394;SDS011;11870;53.084;18.206;2022-12-18T11:53:29;68.80;;;20.35;;
23394;SDS011;11870;53.084;18.206;2022-12-18T11:56:01;59.60;;;17.30;;
23394;SDS011;11870;53.084;18.206;2022-12-18T11:58:31;49.53;;;16.67;;
23394;SDS011;11870;53.084;18.206;2022-12-18T12:06:30;49.85;;;15.48;;
23394;SDS011;11870;53.084;18.206;2022-12-18T12:11:44;56.17;;;17.65;;
23394;SDS011;11870;53.084;18.206;2022-12-18T12:17:07;58.58;;;19.20;;
23394;SDS011;11870;53.084;18.206;2022-12-18T12:22:26;58.92;;;16.98;;
23394;SDS011;11870;53.084;18.206;2022-12-18T12:33:22;47.25;;;16.13;;
23394;SDS011;11870;53.084;18.206;2022-12-18T12:38:57;54.10;;;17.55;;
23394;SDS011;11870;53.084;18.206;2022-12-18T12:41:27;55.90;;;18.42;;
23394;SDS011;11870;53.084;18.206;2022-12-18T12:44:17;45.63;;;17.30;;
23394;SDS011;11870;53.084;18.206;2022-12-18T12:46:47;53.20;;;17.55;;
23394;SDS011;11870;53.084;18.206;2022-12-18T12:49:18;45.65;;;15.35;;
23394;SDS011;11870;53.084;18.206;2022-12-18T12:51:47;45.35;;;15.93;;
23394;SDS011;11870;53.084;18.206;2022-12-18T12:54:23;48.25;;;15.45;;
23394;SDS011;11870;53.084;18.206;2022-12-18T12:59:37;51.33;;;15.88;;
23394;SDS011;11870;53.084;18.206;2022-12-18T13:02:10;55.55;;;17.80;;
23394;SDS011;11870;53.084;18.206;2022-12-18T13:08:05;51.03;;;16.10;;
23394;SDS011;11870;53.084;18.206;2022-12-18T13:10:35;53.65;;;17.70;;
23394;SDS011;11870;53.084;18.206;2022-12-18T13:13:10;50.47;;;17.05;;
23394;SDS011;11870;53.084;18.206;2022-12-18T13:15:47;52.20;;;17.52;;
23394;SDS011;11870;53.084;18.206;2022-12-18T13:18:28;46.55;;;16.02;;
23394;SDS011;11870;53.084;18.206;2022-12-18T13:25:50;50.65;;;16.30;;
23394;SDS011;11870;53.084;18.206;2022-12-18T13:31:08;56.35;;;17.52;;
23394;SDS011;11870;53.084;18.206;2022-12-18T13:33:41;49.92;;;15.93;;
23394;SDS011;11870;53.084;18.206;2022-12-18T13:38:40;49.72;;;16.05;;
23394;SDS011;11870;53.084;18.206;2022-12-18T13:43:44;49.28;;;16.58;;
23394;SDS011;11870;53.084;18.206;2022-12-18T13:46:28;49.95;;;16.63;;
23394;SDS011;11870;53.084;18.206;2022-12-18T13:49:03;49.58;;;15.77;;
23394;SDS011;11870;53.084;18.206;2022-12-18T13:51:43;52.95;;;16.50;;
23394;SDS011;11870;53.084;18.206;2022-12-18T13:56:42;58.42;;;16.73;;
23394;SDS011;11870;53.084;18.206;2022-12-18T13:59:13;54.83;;;18.70;;
23394;SDS011;11870;53.084;18.206;2022-12-18T14:02:14;59.15;;;17.88;;
23394;SDS011;11870;53.084;18.206;2022-12-18T14:04:44;60.35;;;18.83;;
23394;SDS011;11870;53.084;18.206;2022-12-18T14:07:12;59.85;;;19.17;;
23394;SDS011;11870;53.084;18.206;2022-12-18T14:09:52;64.05;;;18.02;;
23394;SDS011;11870;53.084;18.206;2022-12-18T14:12:22;56.88;;;18.33;;
23394;SDS011;11870;53.084;18.206;2022-12-18T14:15:20;61.25;;;18.42;;
23394;SDS011;11870;53.084;18.206;2022-12-18T14:17:58;62.35;;;19.00;;
23394;SDS011;11870;53.084;18.206;2022-12-18T14:20:39;63.60;;;19.45;;
23394;SDS011;11870;53.084;18.206;2022-12-18T14:26:19;64.35;;;19.33;;
23394;SDS011;11870;53.084;18.206;2022-12-18T14:28:47;71.53;;;21.23;;
23394;SDS011;11870;53.084;18.206;2022-12-18T14:31:19;59.83;;;19.35;;
23394;SDS011;11870;53.084;18.206;2022-12-18T14:33:47;63.70;;;21.08;;
23394;SDS011;11870;53.084;18.206;2022-12-18T14:36:34;75.30;;;22.60;;
23394;SDS011;11870;53.084;18.206;2022-12-18T14:38:59;71.28;;;20.40;;
23394;SDS011;11870;53.084;18.206;2022-12-18T14:41:25;64.85;;;21.10;;
23394;SDS011;11870;53.084;18.206;2022-12-18T14:43:52;73.22;;;20.48;;
23394;SDS011;11870;53.084;18.206;2022-12-18T14:48:51;53.58;;;18.10;;
23394;SDS011;11870;53.084;18.206;2022-12-18T14:51:21;63.58;;;19.48;;
23394;SDS011;11870;53.084;18.206;2022-12-18T14:53:55;73.45;;;19.33;;
23394;SDS011;11870;53.084;18.206;2022-12-18T14:56:24;57.00;;;19.35;;
23394;SDS011;11870;53.084;18.206;2022-12-18T14:58:58;60.67;;;17.65;;
23394;SDS011;11870;53.084;18.206;2022-12-18T15:03:56;67.45;;;19.80;;
23394;SDS011;11870;53.084;18.206;2022-12-18T15:06:36;68.00;;;21.80;;
23394;SDS011;11870;53.084;18.206;2022-12-18T15:09:18;58.78;;;19.08;;
23394;SDS011;11870;53.084;18.206;2022-12-18T15:11:55;63.92;;;19.55;;
23394;SDS011;11870;53.084;18.206;2022-12-18T15:16:55;55.03;;;18.15;;
23394;SDS011;11870;53.084;18.206;2022-12-18T15:19:26;76.10;;;21.73;;
23394;SDS011;11870;53.084;18.206;2022-12-18T15:22:26;69.25;;;20.67;;
23394;SDS011;11870;53.084;18.206;2022-12-18T15:24:55;74.47;;;20.35;;
23394;SDS011;11870;53.084;18.206;2022-12-18T15:27:23;75.40;;;22.23;;
23394;SDS011;11870;53.084;18.206;2022-12-18T15:32:36;78.10;;;21.92;;
23394;SDS011;11870;53.084;18.206;2022-12-18T15:35:17;79.88;;;23.77;;
23394;SDS011;11870;53.084;18.206;2022-12-18T15:37:45;70.07;;;21.08;;
23394;SDS011;11870;53.084;18.206;2022-12-18T15:40:16;88.75;;;23.30;;
23394;SDS011;11870;53.084;18.206;2022-12-18T15:42:47;82.38;;;22.08;;
23394;SDS011;11870;53.084;18.206;2022-12-18T15:45:32;79.47;;;22.35;;
23394;SDS011;11870;53.084;18.206;2022-12-18T15:47:58;65.28;;;19.27;;
23394;SDS011;11870;53.084;18.206;2022-12-18T15:50:24;69.00;;;20.55;;
23394;SDS011;11870;53.084;18.206;2022-12-18T15:52:51;68.72;;;18.38;;
23394;SDS011;11870;53.084;18.206;2022-12-18T15:55:19;70.85;;;20.95;;
23394;SDS011;11870;53.084;18.206;2022-12-18T15:58:06;68.55;;;21.63;;
23394;SDS011;11870;53.084;18.206;2022-12-18T16:00:33;75.68;;;21.15;;
23394;SDS011;11870;53.084;18.206;2022-12-18T16:03:01;70.60;;;21.25;;
23394;SDS011;11870;53.084;18.206;2022-12-18T16:05:28;81.03;;;21.83;;
23394;SDS011;11870;53.084;18.206;2022-12-18T16:07:55;77.47;;;22.65;;
23394;SDS011;11870;53.084;18.206;2022-12-18T16:10:21;80.20;;;21.55;;
23394;SDS011;11870;53.084;18.206;2022-12-18T16:12:47;70.53;;;19.52;;
23394;SDS011;11870;53.084;18.206;2022-12-18T16:15:14;66.03;;;19.52;;
23394;SDS011;11870;53.084;18.206;2022-12-18T16:17:41;88.47;;;25.05;;
23394;SDS011;11870;53.084;18.206;2022-12-18T16:20:19;72.60;;;20.55;;
23394;SDS011;11870;53.084;18.206;2022-12-18T16:22:47;75.85;;;23.42;;
23394;SDS011;11870;53.084;18.206;2022-12-18T16:25:21;74.07;;;19.80;;
23394;SDS011;11870;53.084;18.206;2022-12-18T16:27:49;80.78;;;22.05;;